Gorham, Kansas
Current Conditions -  °F | °C
As of 3:53 PM on Friday 24 Oct 2014 (Local Time) from KRSL Reporting Station
Clear Clear  
Wind Chill: 86°   Ceiling: Unl
Heat Index: 86°   Visibility: 10mi
Dew Point: 54°   Wind: 8mph
Humidity: 33%   Direction: 250°WSW
Pressure: 29.96"   Gusts: NA
Location:  38.88°N, 99.02°W
Report Text: KRSL 242053Z AUTO 25007KT 10SM CLR 30/12 A2996 RMK AO2 SLP130 T03000122 55017
Loading
Personal Weather Stations






























Interactive Weather Map New forecast layout! Learn more

10-Day Weather Forecast

Advertisements
Track Severe Weather on mobile